Thunder radar more information blitzortung!


Radar de pluja more information rain snow radar


Visita la nostra xarxa de llocs de meteo:

Template documentation
and downloads

And another site



No particular awareness of the weather is required.    There are no Weather-warnings

Pagina Historial Weather Underground text

Diari Resum January 23, 2016 Unitats:  Mètric    Imperial   Tant
« Previous Dia
SegĂźent Dia »
Diari Setmana Mensual Anual Personalitzada
  Maxima: Minima: Media:
Temperatura: -17.8 °C -12.6 °C -10 °C
Punt de rosada: -17.8 °C -15.3 °C -13.9 °C
Humitat: Humidity % 50 % 63 %
Wind Speed: 0 km/h 0 km/h 8.5 km/h
RĂ fegues de vent: 0 km/h - -
Vent:- - SW
Pression baro: 0 hPa 34946.9 hPa -
Precipitacions: 0 mm    
Historical Graphs
 
 
Dades de taula per January 23, 2016
Temps Temperatura Punt de rosada Pression baro Vent Wind Speed RĂ fegues de vent Humitat Rainfall Rate (Hourly)
-17.8 °C -17.8 °C 0 hPa Calm     Humidity % 0 mm
13:51 -9.3 °C -13.6 °C 34967.2 hPa NNE 6 km/h 6 km/h 60 % 0 mm
13:56 -9.2 °C -13.4 °C 34967.2 hPa ESE 10.3 km/h 10.3 km/h 61 % 0 mm
14:01 -9.2 °C -13.3 °C 34967.2 hPa ESE 6.3 km/h 6.3 km/h 61 % 0 mm
14:06 -9 °C -13 °C 35001.1 hPa ESE 9.8 km/h 9.8 km/h 62 % 0 mm
14:11 -8.9 °C -13.1 °C 35001.1 hPa SSE 11.9 km/h 11.9 km/h 61 % 0 mm
14:16 -8.8 °C -13 °C 35001.1 hPa South 9 km/h 9 km/h 61 % 0 mm
14:21 -8.8 °C -12.9 °C 35001.1 hPa WSW 6.3 km/h 6.3 km/h 61 % 0 mm
14:26 -8.8 °C -13.1 °C 35001.1 hPa SW 11.9 km/h 11.9 km/h 60 % 0 mm
14:31 -8.7 °C -13.1 °C 35001.1 hPa WSW 11.9 km/h 11.9 km/h 60 % 0 mm
14:36 -8.7 °C -13.3 °C 35001.1 hPa SW 9 km/h 9 km/h 58 % 0 mm
14:41 -8.6 °C -13.1 °C 35001.1 hPa SW 7.6 km/h 7.6 km/h 59 % 0 mm
14:46 -8.4 °C -13.1 °C 35001.1 hPa South 11.9 km/h 11.9 km/h 58 % 0 mm
14:51 -8.3 °C -13.2 °C 35001.1 hPa South 9 km/h 9 km/h 56 % 0 mm
14:56 -8.1 °C -13.1 °C 35001.1 hPa ENE 3.1 km/h 3.1 km/h 56 % 0 mm
15:01 -8 °C -13.1 °C 35001.1 hPa ENE 9 km/h 9 km/h 55 % 0 mm
15:06 -8 °C -13.1 °C 34967.2 hPa South 9 km/h 9 km/h 55 % 0 mm
15:11 -7.9 °C -13 °C 34967.2 hPa South 9 km/h 9 km/h 55 % 0 mm
15:16 -7.7 °C -12.9 °C 34967.2 hPa West 9 km/h 9 km/h 54 % 0 mm
15:21 -7.6 °C -12.9 °C 34967.2 hPa SSW 6 km/h 6 km/h 53 % 0 mm
15:26 -7.4 °C -12.7 °C 34967.2 hPa SSE 6.3 km/h 6.3 km/h 54 % 0 mm
15:31 -7.4 °C -12.9 °C 34967.2 hPa SW 6 km/h 6.3 km/h 53 % 0 mm
15:36 -7.4 °C -13 °C 34967.2 hPa SW 9 km/h 9 km/h 52 % 0 mm
15:41 -7.3 °C -12.9 °C 34967.2 hPa West 11.9 km/h 11.9 km/h 52 % 0 mm
15:46 -7.3 °C -12.9 °C 34967.2 hPa SW 9.3 km/h 9.3 km/h 52 % 0 mm
15:51 -7.3 °C -13.1 °C 34946.9 hPa SW 6.8 km/h 6.8 km/h 51 % 0 mm
15:56 -7.4 °C -13.2 °C 34946.9 hPa SW 11.9 km/h 11.9 km/h 51 % 0 mm
16:01 -7.3 °C -13.1 °C 34946.9 hPa WSW 15 km/h 15 km/h 51 % 0 mm
16:06 -7.3 °C -13.1 °C 34946.9 hPa WSW 9 km/h 9 km/h 51 % 0 mm
16:11 -7.2 °C -13.2 °C 34946.9 hPa SW 6 km/h 6 km/h 50 % 0 mm
16:16 -7.3 °C -13 °C 34946.9 hPa SW 15 km/h 15 km/h 51 % 0 mm
16:21 -7.3 °C -13.1 °C 34946.9 hPa WSW 11.9 km/h 11.9 km/h 51 % 0 mm
16:26 -7.4 °C -13.2 °C 34946.9 hPa SW 16.6 km/h 16.6 km/h 51 % 0 mm
16:32 -7.4 °C -13.2 °C 34946.9 hPa SW 15 km/h 15 km/h 51 % 0 mm
16:37 -7.5 °C -13.2 °C 34946.9 hPa WSW 15.3 km/h 15.3 km/h 51 % 0 mm
16:42 -7.7 °C -13.4 °C 34946.9 hPa SW 17.9 km/h 17.9 km/h 51 % 0 mm
16:47 -7.7 °C -13.4 °C 34946.9 hPa SW 20.3 km/h 20.3 km/h 51 % 0 mm
16:52 -7.8 °C -13.3 °C 34946.9 hPa WSW 19.2 km/h 19.2 km/h 52 % 0 mm
16:57 -7.9 °C -13.3 °C 34946.9 hPa SW 20.9 km/h 20.9 km/h 53 % 0 mm
17:07 -8.2 °C -13.4 °C 34946.9 hPa WSW 20.9 km/h 20.9 km/h 54 % 0 mm
17:12 -8.3 °C -13.6 °C 34946.9 hPa WSW 23.8 km/h 23.8 km/h 54 % 0 mm
17:17 -8.4 °C -13.4 °C 34946.9 hPa WSW 20.9 km/h 20.9 km/h 56 % 0 mm
17:22 -8.6 °C -13.3 °C 34946.9 hPa SSW 17.9 km/h 17.9 km/h 57 % 0 mm
17:27 -8.7 °C -13.3 °C 34946.9 hPa SW 20.9 km/h 20.9 km/h 58 % 0 mm
17:37 -8.9 °C -13.4 °C 34946.9 hPa WSW 15 km/h 15 km/h 59 % 0 mm
17:42 -9.1 °C -13.4 °C 34946.9 hPa WSW 9 km/h 9 km/h 60 % 0 mm
17:47 -9.2 °C -13.5 °C 34946.9 hPa SW 6.8 km/h 6.8 km/h 60 % 0 mm
17:52 -9.3 °C -13.5 °C 34967.2 hPa SW 9 km/h 9 km/h 61 % 0 mm
17:57 -9.4 °C -13.6 °C 34967.2 hPa West 11.9 km/h 11.9 km/h 61 % 0 mm
18:02 -9.5 °C -13.5 °C 34967.2 hPa WSW 15 km/h 15 km/h 62 % 0 mm
18:07 -9.6 °C -13.6 °C 34967.2 hPa WSW 6.3 km/h 6.3 km/h 62 % 0 mm
18:12 -9.7 °C -13.7 °C 34967.2 hPa NW 8 km/h 8 km/h 62 % 0 mm
18:17 -9.8 °C -13.7 °C 34967.2 hPa WSW 9.3 km/h 9.3 km/h 63 % 0 mm
18:22 -9.8 °C -13.7 °C 34967.2 hPa SW 11.9 km/h 11.9 km/h 63 % 0 mm
18:27 -9.9 °C -13.6 °C 34967.2 hPa SW 6 km/h 6.3 km/h 64 % 0 mm
18:32 -10 °C -13.7 °C 34967.2 hPa SW 9.3 km/h 9.3 km/h 64 % 0 mm
18:37 -10.1 °C -13.7 °C 34967.2 hPa WSW 9 km/h 9 km/h 65 % 0 mm
18:42 -10.1 °C -13.7 °C 34967.2 hPa SW 9 km/h 9 km/h 65 % 0 mm
18:47 -10.2 °C -13.8 °C 34967.2 hPa WSW 11.9 km/h 11.9 km/h 65 % 0 mm
18:57 -10.4 °C -13.8 °C 34967.2 hPa WSW 6.8 km/h 8 km/h 66 % 0 mm
19:02 -10.4 °C -13.8 °C 34967.2 hPa SW 9.8 km/h 9.8 km/h 67 % 0 mm
19:07 -10.6 °C -13.9 °C 35001.1 hPa SW 9 km/h 9 km/h 67 % 0 mm
19:12 -10.6 °C -13.8 °C 35001.1 hPa SW 9 km/h 9 km/h 68 % 0 mm
19:22 -10.7 °C -13.9 °C 35001.1 hPa SW 6.3 km/h 6.3 km/h 68 % 0 mm
19:27 -10.8 °C -14 °C 35001.1 hPa SW 6.3 km/h 6.3 km/h 68 % 0 mm
19:32 -10.8 °C -14 °C 35001.1 hPa WSW 6 km/h 6 km/h 68 % 0 mm
19:37 -10.9 °C -13.9 °C 35001.1 hPa SW 6 km/h 6 km/h 69 % 0 mm
19:42 -11 °C -14.1 °C 35001.1 hPa WSW 6 km/h 6 km/h 69 % 0 mm
19:47 -11.1 °C -14.1 °C 35001.1 hPa SW 5.1 km/h 5.1 km/h 69 % 0 mm
19:52 -11.1 °C -14.1 °C 35001.1 hPa SW 6 km/h 6 km/h 69 % 0 mm
19:57 -11.1 °C -14.1 °C 35001.1 hPa WSW 9 km/h 9 km/h 69 % 0 mm
20:02 -11.1 °C -14.1 °C 35001.1 hPa WSW 9 km/h 9 km/h 70 % 0 mm
20:07 -11.2 °C -14.1 °C 35001.1 hPa WSW 6 km/h 6 km/h 70 % 0 mm
20:12 -11.2 °C -14.2 °C 35001.1 hPa WSW 4.2 km/h 4.2 km/h 70 % 0 mm
20:17 -11.3 °C -14.2 °C 35001.1 hPa WSW 6 km/h 6 km/h 70 % 0 mm
20:22 -11.3 °C -14.3 °C 35001.1 hPa WSW 6 km/h 6 km/h 70 % 0 mm
20:27 -11.4 °C -14.3 °C 35001.1 hPa WSW 6 km/h 6.3 km/h 70 % 0 mm
20:32 -11.4 °C -14.3 °C 35001.1 hPa Calm     70 % 0 mm
20:37 -11.5 °C -14.4 °C 35001.1 hPa Calm     70 % 0 mm
20:42 -11.5 °C -14.4 °C 35001.1 hPa Calm     70 % 0 mm
20:47 -11.6 °C -14.6 °C 35001.1 hPa SW 9 km/h 9 km/h 69 % 0 mm
20:52 -11.7 °C -14.6 °C 34967.2 hPa SW 9 km/h 9 km/h 70 % 0 mm
20:57 -11.7 °C -14.6 °C 34967.2 hPa WSW 6.8 km/h 6.8 km/h 71 % 0 mm
21:02 -11.7 °C -14.6 °C 34967.2 hPa WSW 9 km/h 9 km/h 71 % 0 mm
21:07 -11.8 °C -14.5 °C 34967.2 hPa SW 9 km/h 9 km/h 72 % 0 mm
21:12 -11.8 °C -14.6 °C 34967.2 hPa WSW 6.3 km/h 6.3 km/h 72 % 0 mm
21:17 -11.8 °C -14.5 °C 34967.2 hPa West 6 km/h 6 km/h 72 % 0 mm
21:22 -11.7 °C -14.4 °C 34967.2 hPa West 6 km/h 6 km/h 72 % 0 mm
21:27 -11.8 °C -14.5 °C 34967.2 hPa West 6 km/h   72 % 0 mm
21:32 -11.8 °C -14.5 °C 34967.2 hPa WSW 3.7 km/h 5.6 km/h 72 % 0 mm
21:37 -11.8 °C -14.6 °C 34946.9 hPa SW 6.8 km/h 6.8 km/h 71 % 0 mm
21:47 -11.9 °C -14.8 °C 34946.9 hPa SW 6.3 km/h 6.3 km/h 71 % 0 mm
21:52 -12 °C -14.8 °C 35001.1 hPa SW 6.3 km/h   71 % 0 mm
21:57 -12 °C -14.7 °C 35001.1 hPa NNE 3.1 km/h 3.7 km/h 72 % 0 mm
22:02 -12 °C -14.7 °C 35001.1 hPa SW 6 km/h 6 km/h 72 % 0 mm
22:07 -11.9 °C -14.6 °C 35038.3 hPa SW 3.1 km/h   72 % 0 mm
22:12 -11.9 °C -14.6 °C 35038.3 hPa NW 3.1 km/h   72 % 0 mm
22:17 -12 °C -14.7 °C 35038.3 hPa WNW 3.7 km/h   72 % 0 mm
22:22 -12.2 °C -14.9 °C 35001.1 hPa Calm     71 % 0 mm
22:27 -12.2 °C -15 °C 35001.1 hPa WNW 3.1 km/h 3.1 km/h 71 % 0 mm
22:32 -12.3 °C -15.1 °C 35001.1 hPa WSW 6 km/h   71 % 0 mm
22:37 -12.3 °C -15.1 °C 35038.3 hPa SW 6 km/h 6 km/h 71 % 0 mm
22:42 -12.4 °C -15.2 °C 35038.3 hPa SW 3.1 km/h   71 % 0 mm
22:47 -12.4 °C -15.2 °C 35038.3 hPa WSW 3.1 km/h   71 % 0 mm
22:57 -12.3 °C -15.1 °C 35038.3 hPa Calm     71 % 0 mm
23:02 -12.3 °C -15.1 °C 35038.3 hPa WSW 3.1 km/h   71 % 0 mm
23:07 -12.4 °C -15.2 °C 35001.1 hPa WSW 4.2 km/h 4.2 km/h 71 % 0 mm
23:12 -12.5 °C -15.3 °C 35001.1 hPa WSW 6 km/h 6 km/h 71 % 0 mm
23:17 -12.6 °C -15.3 °C 35001.1 hPa WSW 6 km/h 6 km/h 71 % 0 mm
Meteo Sesrovires
Elogis d' Weather Underground - 2 mb

Guio original per  Jim McMurry - jmcmurry@mwt.net Adaptat per a la plantilla per  Wim van der Kuil - Leuven-Template.eu

Trobareu la nostra informacio del temps tambe a:

Weather Underground

AWEKAS